sensor_id;sensor_type;location;lat;lon;timestamp;P1;durP1;ratioP1;P2;durP2;ratioP2
69894;SDS011;57172;52.034;5.090;2023-05-01T00:00:23;8.25;;;3.50;;
69894;SDS011;57172;52.034;5.090;2023-05-01T00:02:52;8.27;;;3.60;;
69894;SDS011;57172;52.034;5.090;2023-05-01T00:05:19;5.65;;;3.55;;
69894;SDS011;57172;52.034;5.090;2023-05-01T00:07:46;6.57;;;4.07;;
69894;SDS011;57172;52.034;5.090;2023-05-01T00:10:13;6.25;;;3.40;;
69894;SDS011;57172;52.034;5.090;2023-05-01T00:12:40;6.40;;;3.95;;
69894;SDS011;57172;52.034;5.090;2023-05-01T00:15:07;5.23;;;3.67;;
69894;SDS011;57172;52.034;5.090;2023-05-01T00:17:35;6.57;;;3.80;;
69894;SDS011;57172;52.034;5.090;2023-05-01T00:20:02;8.63;;;3.95;;
69894;SDS011;57172;52.034;5.090;2023-05-01T00:22:30;8.25;;;3.78;;
69894;SDS011;57172;52.034;5.090;2023-05-01T00:24:57;7.43;;;3.80;;
69894;SDS011;57172;52.034;5.090;2023-05-01T00:27:24;6.63;;;3.60;;
69894;SDS011;57172;52.034;5.090;2023-05-01T00:29:51;6.53;;;4.00;;
69894;SDS011;57172;52.034;5.090;2023-05-01T00:32:18;9.30;;;4.03;;
69894;SDS011;57172;52.034;5.090;2023-05-01T00:34:45;9.18;;;3.80;;
69894;SDS011;57172;52.034;5.090;2023-05-01T00:37:13;5.78;;;3.67;;
69894;SDS011;57172;52.034;5.090;2023-05-01T00:39:40;6.87;;;3.93;;
69894;SDS011;57172;52.034;5.090;2023-05-01T00:42:07;5.78;;;3.60;;
69894;SDS011;57172;52.034;5.090;2023-05-01T00:44:34;10.20;;;4.13;;
69894;SDS011;57172;52.034;5.090;2023-05-01T00:47:01;6.38;;;3.80;;
69894;SDS011;57172;52.034;5.090;2023-05-01T00:49:29;7.93;;;3.80;;
69894;SDS011;57172;52.034;5.090;2023-05-01T00:51:57;6.80;;;3.80;;
69894;SDS011;57172;52.034;5.090;2023-05-01T00:54:24;8.65;;;4.00;;
69894;SDS011;57172;52.034;5.090;2023-05-01T00:56:53;7.55;;;3.70;;
69894;SDS011;57172;52.034;5.090;2023-05-01T00:59:20;6.47;;;3.70;;
69894;SDS011;57172;52.034;5.090;2023-05-01T01:01:47;6.15;;;4.00;;
69894;SDS011;57172;52.034;5.090;2023-05-01T01:04:16;8.53;;;3.70;;
69894;SDS011;57172;52.034;5.090;2023-05-01T01:06:48;10.27;;;3.50;;
69894;SDS011;57172;52.034;5.090;2023-05-01T01:12:20;6.05;;;3.30;;
69894;SDS011;57172;52.034;5.090;2023-05-01T01:17:38;6.67;;;3.80;;
69894;SDS011;57172;52.034;5.090;2023-05-01T01:20:48;5.80;;;3.58;;
69894;SDS011;57172;52.034;5.090;2023-05-01T01:34:46;8.48;;;3.67;;
69894;SDS011;57172;52.034;5.090;2023-05-01T01:37:29;6.35;;;3.38;;
69894;SDS011;57172;52.034;5.090;2023-05-01T01:40:06;6.30;;;3.58;;
69894;SDS011;57172;52.034;5.090;2023-05-01T01:42:45;5.97;;;3.63;;
69894;SDS011;57172;52.034;5.090;2023-05-01T01:45:20;7.70;;;3.70;;
69894;SDS011;57172;52.034;5.090;2023-05-01T01:47:51;6.90;;;3.53;;
69894;SDS011;57172;52.034;5.090;2023-05-01T01:50:20;7.88;;;3.50;;
69894;SDS011;57172;52.034;5.090;2023-05-01T01:52:52;5.85;;;3.33;;
69894;SDS011;57172;52.034;5.090;2023-05-01T01:55:20;8.48;;;3.60;;
69894;SDS011;57172;52.034;5.090;2023-05-01T01:57:50;7.00;;;3.47;;
69894;SDS011;57172;52.034;5.090;2023-05-01T02:00:18;6.75;;;3.50;;
69894;SDS011;57172;52.034;5.090;2023-05-01T02:02:48;6.20;;;3.30;;
69894;SDS011;57172;52.034;5.090;2023-05-01T02:05:18;6.60;;;3.20;;
69894;SDS011;57172;52.034;5.090;2023-05-01T02:07:47;5.63;;;3.30;;
69894;SDS011;57172;52.034;5.090;2023-05-01T02:10:16;6.43;;;3.60;;
69894;SDS011;57172;52.034;5.090;2023-05-01T02:12:45;6.90;;;3.50;;
69894;SDS011;57172;52.034;5.090;2023-05-01T02:15:14;6.70;;;3.42;;
69894;SDS011;57172;52.034;5.090;2023-05-01T02:17:43;7.85;;;3.35;;
69894;SDS011;57172;52.034;5.090;2023-05-01T02:20:11;7.90;;;3.70;;
69894;SDS011;57172;52.034;5.090;2023-05-01T02:22:39;7.37;;;3.40;;
69894;SDS011;57172;52.034;5.090;2023-05-01T02:25:10;7.70;;;3.55;;
69894;SDS011;57172;52.034;5.090;2023-05-01T02:30:39;10.05;;;3.75;;
69894;SDS011;57172;52.034;5.090;2023-05-01T02:33:06;7.35;;;3.80;;
69894;SDS011;57172;52.034;5.090;2023-05-01T02:35:40;7.10;;;3.43;;
69894;SDS011;57172;52.034;5.090;2023-05-01T02:38:09;6.53;;;3.60;;
69894;SDS011;57172;52.034;5.090;2023-05-01T02:40:38;8.70;;;3.70;;
69894;SDS011;57172;52.034;5.090;2023-05-01T02:43:08;6.50;;;3.63;;
69894;SDS011;57172;52.034;5.090;2023-05-01T02:45:37;7.10;;;3.40;;
69894;SDS011;57172;52.034;5.090;2023-05-01T02:48:07;6.13;;;3.50;;
69894;SDS011;57172;52.034;5.090;2023-05-01T02:50:42;8.93;;;3.78;;
69894;SDS011;57172;52.034;5.090;2023-05-01T02:53:11;6.35;;;3.42;;
69894;SDS011;57172;52.034;5.090;2023-05-01T02:55:50;6.97;;;3.50;;
69894;SDS011;57172;52.034;5.090;2023-05-01T02:58:17;7.28;;;3.65;;
69894;SDS011;57172;52.034;5.090;2023-05-01T03:00:46;7.30;;;4.20;;
69894;SDS011;57172;52.034;5.090;2023-05-01T03:03:15;5.65;;;3.30;;
69894;SDS011;57172;52.034;5.090;2023-05-01T03:05:42;7.95;;;3.45;;
69894;SDS011;57172;52.034;5.090;2023-05-01T03:08:09;6.72;;;3.55;;
69894;SDS011;57172;52.034;5.090;2023-05-01T03:10:39;7.68;;;3.70;;
69894;SDS011;57172;52.034;5.090;2023-05-01T03:13:09;7.97;;;3.53;;
69894;SDS011;57172;52.034;5.090;2023-05-01T03:15:37;6.43;;;3.65;;
69894;SDS011;57172;52.034;5.090;2023-05-01T03:18:04;7.95;;;3.92;;
69894;SDS011;57172;52.034;5.090;2023-05-01T03:20:32;8.85;;;3.72;;
69894;SDS011;57172;52.034;5.090;2023-05-01T03:22:59;6.13;;;3.45;;
69894;SDS011;57172;52.034;5.090;2023-05-01T03:25:27;7.37;;;3.37;;
69894;SDS011;57172;52.034;5.090;2023-05-01T03:27:54;7.53;;;3.40;;
69894;SDS011;57172;52.034;5.090;2023-05-01T03:30:21;7.55;;;3.78;;
69894;SDS011;57172;52.034;5.090;2023-05-01T03:32:50;7.38;;;3.40;;
69894;SDS011;57172;52.034;5.090;2023-05-01T03:35:23;9.05;;;3.67;;
69894;SDS011;57172;52.034;5.090;2023-05-01T03:37:50;7.13;;;4.17;;
69894;SDS011;57172;52.034;5.090;2023-05-01T03:40:37;8.20;;;3.92;;
69894;SDS011;57172;52.034;5.090;2023-05-01T03:43:23;9.00;;;3.92;;
69894;SDS011;57172;52.034;5.090;2023-05-01T03:45:51;8.43;;;3.70;;
69894;SDS011;57172;52.034;5.090;2023-05-01T03:48:19;8.13;;;3.80;;
69894;SDS011;57172;52.034;5.090;2023-05-01T03:50:46;7.67;;;3.80;;
69894;SDS011;57172;52.034;5.090;2023-05-01T03:53:13;7.07;;;3.70;;
69894;SDS011;57172;52.034;5.090;2023-05-01T03:55:41;6.20;;;3.65;;
69894;SDS011;57172;52.034;5.090;2023-05-01T03:58:09;6.68;;;3.70;;
69894;SDS011;57172;52.034;5.090;2023-05-01T04:00:37;8.82;;;3.67;;
69894;SDS011;57172;52.034;5.090;2023-05-01T04:03:04;10.30;;;4.17;;
69894;SDS011;57172;52.034;5.090;2023-05-01T04:05:33;9.02;;;3.67;;
69894;SDS011;57172;52.034;5.090;2023-05-01T04:08:01;5.90;;;3.47;;
69894;SDS011;57172;52.034;5.090;2023-05-01T04:10:29;9.00;;;3.78;;
69894;SDS011;57172;52.034;5.090;2023-05-01T04:13:01;8.10;;;3.58;;
69894;SDS011;57172;52.034;5.090;2023-05-01T04:15:27;8.47;;;4.17;;
69894;SDS011;57172;52.034;5.090;2023-05-01T04:17:55;7.28;;;4.05;;
69894;SDS011;57172;52.034;5.090;2023-05-01T04:20:22;6.65;;;3.58;;
69894;SDS011;57172;52.034;5.090;2023-05-01T04:22:49;7.22;;;3.58;;
69894;SDS011;57172;52.034;5.090;2023-05-01T04:25:16;7.72;;;3.65;;
69894;SDS011;57172;52.034;5.090;2023-05-01T04:27:45;7.53;;;3.90;;
69894;SDS011;57172;52.034;5.090;2023-05-01T04:30:13;7.35;;;3.90;;
69894;SDS011;57172;52.034;5.090;2023-05-01T04:32:40;11.23;;;3.97;;
69894;SDS011;57172;52.034;5.090;2023-05-01T04:35:07;8.57;;;3.83;;
69894;SDS011;57172;52.034;5.090;2023-05-01T04:37:36;9.13;;;3.67;;
69894;SDS011;57172;52.034;5.090;2023-05-01T04:40:03;7.63;;;3.93;;
69894;SDS011;57172;52.034;5.090;2023-05-01T04:42:30;8.63;;;4.10;;
69894;SDS011;57172;52.034;5.090;2023-05-01T04:44:57;8.05;;;3.70;;
69894;SDS011;57172;52.034;5.090;2023-05-01T04:47:31;7.35;;;3.60;;
69894;SDS011;57172;52.034;5.090;2023-05-01T04:49:58;7.32;;;4.13;;
69894;SDS011;57172;52.034;5.090;2023-05-01T04:52:25;7.83;;;3.53;;
69894;SDS011;57172;52.034;5.090;2023-05-01T04:54:56;6.72;;;3.72;;
69894;SDS011;57172;52.034;5.090;2023-05-01T04:57:26;7.57;;;4.10;;
69894;SDS011;57172;52.034;5.090;2023-05-01T04:59:52;8.07;;;3.88;;
69894;SDS011;57172;52.034;5.090;2023-05-01T05:02:20;7.70;;;4.32;;
69894;SDS011;57172;52.034;5.090;2023-05-01T05:04:47;7.67;;;3.87;;
69894;SDS011;57172;52.034;5.090;2023-05-01T05:07:15;8.60;;;4.18;;
69894;SDS011;57172;52.034;5.090;2023-05-01T05:10:00;8.75;;;4.43;;
69894;SDS011;57172;52.034;5.090;2023-05-01T05:12:28;8.25;;;4.00;;
69894;SDS011;57172;52.034;5.090;2023-05-01T05:14:55;11.13;;;3.88;;
69894;SDS011;57172;52.034;5.090;2023-05-01T05:17:22;8.17;;;3.87;;
69894;SDS011;57172;52.034;5.090;2023-05-01T05:19:49;8.57;;;4.10;;
69894;SDS011;57172;52.034;5.090;2023-05-01T05:22:16;8.93;;;4.10;;
69894;SDS011;57172;52.034;5.090;2023-05-01T05:25:03;9.55;;;4.03;;
69894;SDS011;57172;52.034;5.090;2023-05-01T05:27:31;12.98;;;4.20;;
69894;SDS011;57172;52.034;5.090;2023-05-01T05:30:03;10.27;;;4.27;;
69894;SDS011;57172;52.034;5.090;2023-05-01T05:32:32;10.93;;;4.30;;
69894;SDS011;57172;52.034;5.090;2023-05-01T05:35:00;12.30;;;4.18;;
69894;SDS011;57172;52.034;5.090;2023-05-01T05:37:26;10.18;;;4.00;;
69894;SDS011;57172;52.034;5.090;2023-05-01T05:39:55;7.85;;;4.22;;
69894;SDS011;57172;52.034;5.090;2023-05-01T05:42:23;12.63;;;4.17;;
69894;SDS011;57172;52.034;5.090;2023-05-01T05:44:50;9.73;;;4.00;;
69894;SDS011;57172;52.034;5.090;2023-05-01T05:47:18;11.63;;;4.13;;
69894;SDS011;57172;52.034;5.090;2023-05-01T05:49:45;13.60;;;4.40;;
69894;SDS011;57172;52.034;5.090;2023-05-01T05:52:12;12.98;;;4.20;;
69894;SDS011;57172;52.034;5.090;2023-05-01T05:54:39;9.33;;;3.90;;
69894;SDS011;57172;52.034;5.090;2023-05-01T05:57:06;12.40;;;4.43;;
69894;SDS011;57172;52.034;5.090;2023-05-01T05:59:38;9.98;;;4.28;;
69894;SDS011;57172;52.034;5.090;2023-05-01T06:02:05;12.18;;;4.15;;
69894;SDS011;57172;52.034;5.090;2023-05-01T06:04:33;15.93;;;4.25;;
69894;SDS011;57172;52.034;5.090;2023-05-01T06:07:00;18.67;;;4.20;;
69894;SDS011;57172;52.034;5.090;2023-05-01T06:09:27;9.57;;;3.97;;
69894;SDS011;57172;52.034;5.090;2023-05-01T06:11:54;11.68;;;4.10;;
69894;SDS011;57172;52.034;5.090;2023-05-01T06:14:21;10.93;;;3.65;;
69894;SDS011;57172;52.034;5.090;2023-05-01T06:16:47;11.32;;;4.32;;
69894;SDS011;57172;52.034;5.090;2023-05-01T06:19:14;9.60;;;3.97;;
69894;SDS011;57172;52.034;5.090;2023-05-01T06:21:43;17.35;;;4.05;;
69894;SDS011;57172;52.034;5.090;2023-05-01T06:24:10;11.45;;;4.22;;
69894;SDS011;57172;52.034;5.090;2023-05-01T06:26:44;9.50;;;3.72;;
69894;SDS011;57172;52.034;5.090;2023-05-01T06:29:10;8.63;;;3.75;;
69894;SDS011;57172;52.034;5.090;2023-05-01T06:31:38;10.30;;;4.03;;
69894;SDS011;57172;52.034;5.090;2023-05-01T06:34:04;11.93;;;3.78;;
69894;SDS011;57172;52.034;5.090;2023-05-01T06:36:44;8.43;;;3.80;;
69894;SDS011;57172;52.034;5.090;2023-05-01T06:39:11;9.90;;;3.95;;
69894;SDS011;57172;52.034;5.090;2023-05-01T06:41:38;10.98;;;3.95;;
69894;SDS011;57172;52.034;5.090;2023-05-01T06:44:05;9.77;;;3.87;;
69894;SDS011;57172;52.034;5.090;2023-05-01T06:46:32;7.60;;;4.05;;
69894;SDS011;57172;52.034;5.090;2023-05-01T06:48:58;9.90;;;4.13;;
69894;SDS011;57172;52.034;5.090;2023-05-01T06:51:25;10.82;;;4.13;;
69894;SDS011;57172;52.034;5.090;2023-05-01T06:53:52;11.43;;;4.00;;
69894;SDS011;57172;52.034;5.090;2023-05-01T06:56:20;9.23;;;4.20;;
69894;SDS011;57172;52.034;5.090;2023-05-01T06:58:47;9.57;;;4.38;;
69894;SDS011;57172;52.034;5.090;2023-05-01T07:01:15;9.63;;;4.15;;
69894;SDS011;57172;52.034;5.090;2023-05-01T07:03:43;7.95;;;3.95;;
69894;SDS011;57172;52.034;5.090;2023-05-01T07:06:10;11.20;;;4.30;;
69894;SDS011;57172;52.034;5.090;2023-05-01T07:08:37;10.63;;;4.30;;
69894;SDS011;57172;52.034;5.090;2023-05-01T07:11:04;8.15;;;4.20;;
69894;SDS011;57172;52.034;5.090;2023-05-01T07:13:31;9.55;;;4.30;;
69894;SDS011;57172;52.034;5.090;2023-05-01T07:15:58;9.48;;;4.35;;
69894;SDS011;57172;52.034;5.090;2023-05-01T07:18:25;8.30;;;4.32;;
69894;SDS011;57172;52.034;5.090;2023-05-01T07:20:52;10.50;;;5.10;;
69894;SDS011;57172;52.034;5.090;2023-05-01T07:23:18;9.48;;;5.22;;
69894;SDS011;57172;52.034;5.090;2023-05-01T07:25:45;10.85;;;4.97;;
69894;SDS011;57172;52.034;5.090;2023-05-01T07:28:13;11.13;;;4.85;;
69894;SDS011;57172;52.034;5.090;2023-05-01T07:30:41;9.27;;;5.07;;
69894;SDS011;57172;52.034;5.090;2023-05-01T07:33:07;9.10;;;4.83;;
69894;SDS011;57172;52.034;5.090;2023-05-01T07:35:34;9.15;;;4.70;;
69894;SDS011;57172;52.034;5.090;2023-05-01T07:38:01;9.80;;;4.85;;
69894;SDS011;57172;52.034;5.090;2023-05-01T07:40:29;10.55;;;5.07;;
69894;SDS011;57172;52.034;5.090;2023-05-01T07:42:59;9.35;;;4.85;;
69894;SDS011;57172;52.034;5.090;2023-05-01T07:45:26;10.13;;;4.93;;
69894;SDS011;57172;52.034;5.090;2023-05-01T07:47:53;11.30;;;4.78;;
69894;SDS011;57172;52.034;5.090;2023-05-01T07:50:20;8.65;;;4.68;;
69894;SDS011;57172;52.034;5.090;2023-05-01T07:52:48;9.45;;;5.20;;
69894;SDS011;57172;52.034;5.090;2023-05-01T07:55:15;10.63;;;4.75;;
69894;SDS011;57172;52.034;5.090;2023-05-01T07:57:44;10.10;;;5.33;;
69894;SDS011;57172;52.034;5.090;2023-05-01T08:00:11;10.45;;;5.00;;
69894;SDS011;57172;52.034;5.090;2023-05-01T08:02:39;9.30;;;5.10;;
69894;SDS011;57172;52.034;5.090;2023-05-01T08:05:06;10.15;;;5.07;;
69894;SDS011;57172;52.034;5.090;2023-05-01T08:07:34;9.80;;;5.00;;
69894;SDS011;57172;52.034;5.090;2023-05-01T08:10:01;15.47;;;5.30;;
69894;SDS011;57172;52.034;5.090;2023-05-01T08:12:28;9.43;;;5.20;;
69894;SDS011;57172;52.034;5.090;2023-05-01T08:14:56;9.98;;;5.15;;
69894;SDS011;57172;52.034;5.090;2023-05-01T08:17:23;9.43;;;5.30;;
69894;SDS011;57172;52.034;5.090;2023-05-01T08:19:50;9.10;;;4.75;;
69894;SDS011;57172;52.034;5.090;2023-05-01T08:22:19;11.40;;;4.87;;
69894;SDS011;57172;52.034;5.090;2023-05-01T08:24:46;10.43;;;5.20;;
69894;SDS011;57172;52.034;5.090;2023-05-01T08:27:13;8.32;;;4.90;;
69894;SDS011;57172;52.034;5.090;2023-05-01T08:29:39;11.70;;;5.35;;
69894;SDS011;57172;52.034;5.090;2023-05-01T08:32:06;10.55;;;5.50;;
69894;SDS011;57172;52.034;5.090;2023-05-01T08:34:33;12.90;;;5.50;;
69894;SDS011;57172;52.034;5.090;2023-05-01T08:37:01;9.60;;;5.70;;
69894;SDS011;57172;52.034;5.090;2023-05-01T08:39:28;10.27;;;5.47;;
69894;SDS011;57172;52.034;5.090;2023-05-01T08:41:55;12.88;;;7.38;;
69894;SDS011;57172;52.034;5.090;2023-05-01T08:44:27;16.25;;;7.07;;
69894;SDS011;57172;52.034;5.090;2023-05-01T08:49:35;14.27;;;6.78;;
69894;SDS011;57172;52.034;5.090;2023-05-01T08:52:04;12.48;;;7.32;;
69894;SDS011;57172;52.034;5.090;2023-05-01T08:54:32;11.48;;;6.03;;
69894;SDS011;57172;52.034;5.090;2023-05-01T08:57:00;11.88;;;5.80;;
69894;SDS011;57172;52.034;5.090;2023-05-01T08:59:34;10.73;;;5.57;;
69894;SDS011;57172;52.034;5.090;2023-05-01T09:02:03;9.52;;;5.20;;
69894;SDS011;57172;52.034;5.090;2023-05-01T09:04:37;12.43;;;5.30;;
69894;SDS011;57172;52.034;5.090;2023-05-01T09:07:05;10.43;;;5.18;;
69894;SDS011;57172;52.034;5.090;2023-05-01T09:09:33;10.43;;;5.50;;
69894;SDS011;57172;52.034;5.090;2023-05-01T09:12:03;9.57;;;4.93;;
69894;SDS011;57172;52.034;5.090;2023-05-01T09:14:51;9.48;;;5.13;;
69894;SDS011;57172;52.034;5.090;2023-05-01T09:17:19;8.25;;;4.88;;
69894;SDS011;57172;52.034;5.090;2023-05-01T09:19:47;10.80;;;5.18;;
69894;SDS011;57172;52.034;5.090;2023-05-01T09:22:16;11.40;;;5.43;;
69894;SDS011;57172;52.034;5.090;2023-05-01T09:24:44;9.07;;;4.90;;
69894;SDS011;57172;52.034;5.090;2023-05-01T09:27:12;9.68;;;4.88;;
69894;SDS011;57172;52.034;5.090;2023-05-01T09:29:40;9.90;;;4.78;;
69894;SDS011;57172;52.034;5.090;2023-05-01T09:34:43;8.45;;;4.80;;
69894;SDS011;57172;52.034;5.090;2023-05-01T09:37:24;9.40;;;4.60;;
69894;SDS011;57172;52.034;5.090;2023-05-01T09:42:47;10.98;;;4.75;;
69894;SDS011;57172;52.034;5.090;2023-05-01T09:45:17;11.35;;;5.00;;
69894;SDS011;57172;52.034;5.090;2023-05-01T09:47:45;12.70;;;4.90;;
69894;SDS011;57172;52.034;5.090;2023-05-01T09:50:27;11.63;;;5.17;;
69894;SDS011;57172;52.034;5.090;2023-05-01T09:52:54;10.80;;;5.10;;
69894;SDS011;57172;52.034;5.090;2023-05-01T09:55:21;10.63;;;5.28;;
69894;SDS011;57172;52.034;5.090;2023-05-01T09:57:51;10.13;;;5.10;;
69894;SDS011;57172;52.034;5.090;2023-05-01T10:00:18;10.13;;;4.88;;
69894;SDS011;57172;52.034;5.090;2023-05-01T10:02:48;18.17;;;5.40;;
69894;SDS011;57172;52.034;5.090;2023-05-01T10:05:16;10.32;;;5.25;;
69894;SDS011;57172;52.034;5.090;2023-05-01T10:07:57;11.48;;;5.30;;
69894;SDS011;57172;52.034;5.090;2023-05-01T10:10:25;9.73;;;5.15;;
69894;SDS011;57172;52.034;5.090;2023-05-01T10:12:53;10.95;;;5.00;;
69894;SDS011;57172;52.034;5.090;2023-05-01T10:15:20;9.37;;;4.97;;
69894;SDS011;57172;52.034;5.090;2023-05-01T10:17:51;11.27;;;5.35;;
69894;SDS011;57172;52.034;5.090;2023-05-01T10:20:20;14.82;;;5.78;;
69894;SDS011;57172;52.034;5.090;2023-05-01T10:22:46;10.77;;;5.90;;
69894;SDS011;57172;52.034;5.090;2023-05-01T10:25:15;11.55;;;6.75;;
69894;SDS011;57172;52.034;5.090;2023-05-01T10:27:43;10.03;;;6.20;;
69894;SDS011;57172;52.034;5.090;2023-05-01T10:30:10;11.40;;;6.47;;
69894;SDS011;57172;52.034;5.090;2023-05-01T10:32:38;10.52;;;5.88;;
69894;SDS011;57172;52.034;5.090;2023-05-01T10:35:14;12.48;;;6.30;;
69894;SDS011;57172;52.034;5.090;2023-05-01T10:37:48;10.85;;;6.30;;
69894;SDS011;57172;52.034;5.090;2023-05-01T10:43:25;11.50;;;6.32;;
69894;SDS011;57172;52.034;5.090;2023-05-01T10:53:39;9.80;;;5.17;;
69894;SDS011;57172;52.034;5.090;2023-05-01T10:59:00;13.88;;;5.18;;
69894;SDS011;57172;52.034;5.090;2023-05-01T11:04:45;10.82;;;5.43;;
69894;SDS011;57172;52.034;5.090;2023-05-01T11:09:36;10.98;;;5.50;;
69894;SDS011;57172;52.034;5.090;2023-05-01T11:12:08;11.45;;;5.43;;
69894;SDS011;57172;52.034;5.090;2023-05-01T11:22:58;13.57;;;6.07;;
69894;SDS011;57172;52.034;5.090;2023-05-01T11:25:26;10.88;;;5.82;;
69894;SDS011;57172;52.034;5.090;2023-05-01T11:27:56;14.00;;;6.10;;
69894;SDS011;57172;52.034;5.090;2023-05-01T11:30:24;10.75;;;6.10;;
69894;SDS011;57172;52.034;5.090;2023-05-01T11:32:51;10.30;;;6.20;;
69894;SDS011;57172;52.034;5.090;2023-05-01T11:37:45;12.90;;;6.13;;
69894;SDS011;57172;52.034;5.090;2023-05-01T11:40:17;11.18;;;5.70;;
69894;SDS011;57172;52.034;5.090;2023-05-01T11:43:05;11.93;;;5.40;;
69894;SDS011;57172;52.034;5.090;2023-05-01T11:45:33;9.47;;;5.40;;
69894;SDS011;57172;52.034;5.090;2023-05-01T11:48:01;14.23;;;5.65;;
69894;SDS011;57172;52.034;5.090;2023-05-01T11:50:30;9.98;;;5.22;;
69894;SDS011;57172;52.034;5.090;2023-05-01T11:52:58;11.50;;;5.50;;
69894;SDS011;57172;52.034;5.090;2023-05-01T11:55:32;9.45;;;5.72;;
69894;SDS011;57172;52.034;5.090;2023-05-01T11:58:00;9.27;;;5.40;;
69894;SDS011;57172;52.034;5.090;2023-05-01T12:00:35;11.80;;;5.75;;
69894;SDS011;57172;52.034;5.090;2023-05-01T12:03:04;10.35;;;5.15;;
69894;SDS011;57172;52.034;5.090;2023-05-01T12:05:33;12.15;;;5.30;;
69894;SDS011;57172;52.034;5.090;2023-05-01T12:10:37;11.30;;;4.73;;
69894;SDS011;57172;52.034;5.090;2023-05-01T12:13:06;7.75;;;4.38;;
69894;SDS011;57172;52.034;5.090;2023-05-01T12:15:34;10.45;;;4.70;;
69894;SDS011;57172;52.034;5.090;2023-05-01T12:18:05;10.50;;;4.60;;
69894;SDS011;57172;52.034;5.090;2023-05-01T12:20:39;8.75;;;4.45;;
69894;SDS011;57172;52.034;5.090;2023-05-01T12:23:08;11.80;;;4.43;;
69894;SDS011;57172;52.034;5.090;2023-05-01T12:25:40;9.60;;;4.50;;
69894;SDS011;57172;52.034;5.090;2023-05-01T12:28:15;9.32;;;4.70;;
69894;SDS011;57172;52.034;5.090;2023-05-01T12:30:45;9.60;;;4.55;;
69894;SDS011;57172;52.034;5.090;2023-05-01T12:33:18;10.35;;;4.75;;
69894;SDS011;57172;52.034;5.090;2023-05-01T12:35:46;11.67;;;5.30;;
69894;SDS011;57172;52.034;5.090;2023-05-01T12:38:15;12.38;;;4.93;;
69894;SDS011;57172;52.034;5.090;2023-05-01T12:43:27;12.35;;;5.05;;
69894;SDS011;57172;52.034;5.090;2023-05-01T12:45:56;12.30;;;5.20;;
69894;SDS011;57172;52.034;5.090;2023-05-01T12:48:24;12.87;;;5.10;;
69894;SDS011;57172;52.034;5.090;2023-05-01T12:50:51;10.63;;;5.15;;
69894;SDS011;57172;52.034;5.090;2023-05-01T12:53:22;10.38;;;5.05;;
69894;SDS011;57172;52.034;5.090;2023-05-01T12:55:52;10.18;;;5.50;;
69894;SDS011;57172;52.034;5.090;2023-05-01T12:58:22;12.95;;;5.32;;
69894;SDS011;57172;52.034;5.090;2023-05-01T13:00:52;11.43;;;5.60;;
69894;SDS011;57172;52.034;5.090;2023-05-01T13:03:21;10.27;;;5.60;;
69894;SDS011;57172;52.034;5.090;2023-05-01T13:05:50;10.02;;;5.50;;
69894;SDS011;57172;52.034;5.090;2023-05-01T13:11:12;10.32;;;5.05;;
69894;SDS011;57172;52.034;5.090;2023-05-01T13:13:39;12.23;;;5.40;;
69894;SDS011;57172;52.034;5.090;2023-05-01T13:16:14;12.00;;;5.35;;
69894;SDS011;57172;52.034;5.090;2023-05-01T13:21:09;10.98;;;5.70;;
69894;SDS011;57172;52.034;5.090;2023-05-01T13:23:37;9.73;;;5.47;;
69894;SDS011;57172;52.034;5.090;2023-05-01T13:26:05;14.00;;;5.40;;
69894;SDS011;57172;52.034;5.090;2023-05-01T13:28:33;10.35;;;5.45;;
69894;SDS011;57172;52.034;5.090;2023-05-01T13:31:02;11.43;;;6.00;;
69894;SDS011;57172;52.034;5.090;2023-05-01T13:33:35;13.85;;;5.93;;
69894;SDS011;57172;52.034;5.090;2023-05-01T13:36:03;11.02;;;5.72;;
69894;SDS011;57172;52.034;5.090;2023-05-01T13:38:47;16.77;;;6.57;;
69894;SDS011;57172;52.034;5.090;2023-05-01T13:41:22;14.25;;;6.47;;
69894;SDS011;57172;52.034;5.090;2023-05-01T13:43:54;13.80;;;6.28;;
69894;SDS011;57172;52.034;5.090;2023-05-01T13:46:22;14.55;;;6.32;;
69894;SDS011;57172;52.034;5.090;2023-05-01T13:48:51;13.98;;;6.35;;
69894;SDS011;57172;52.034;5.090;2023-05-01T13:51:19;16.73;;;6.47;;
69894;SDS011;57172;52.034;5.090;2023-05-01T13:53:48;11.43;;;5.68;;
69894;SDS011;57172;52.034;5.090;2023-05-01T13:56:15;12.75;;;5.97;;
69894;SDS011;57172;52.034;5.090;2023-05-01T13:58:42;14.18;;;6.63;;
69894;SDS011;57172;52.034;5.090;2023-05-01T14:01:16;11.93;;;6.05;;
69894;SDS011;57172;52.034;5.090;2023-05-01T14:03:48;12.23;;;6.20;;
69894;SDS011;57172;52.034;5.090;2023-05-01T14:06:16;10.77;;;5.47;;
69894;SDS011;57172;52.034;5.090;2023-05-01T14:08:44;11.02;;;5.80;;
69894;SDS011;57172;52.034;5.090;2023-05-01T14:11:13;10.77;;;5.60;;
69894;SDS011;57172;52.034;5.090;2023-05-01T14:13:41;9.77;;;5.82;;
69894;SDS011;57172;52.034;5.090;2023-05-01T14:18:47;10.38;;;5.53;;
69894;SDS011;57172;52.034;5.090;2023-05-01T14:21:15;10.45;;;5.18;;
69894;SDS011;57172;52.034;5.090;2023-05-01T14:23:43;8.68;;;4.63;;
69894;SDS011;57172;52.034;5.090;2023-05-01T14:26:10;9.77;;;4.70;;
69894;SDS011;57172;52.034;5.090;2023-05-01T14:28:43;10.33;;;5.80;;
69894;SDS011;57172;52.034;5.090;2023-05-01T14:31:23;9.98;;;5.38;;
69894;SDS011;57172;52.034;5.090;2023-05-01T14:33:56;8.70;;;4.85;;
69894;SDS011;57172;52.034;5.090;2023-05-01T14:36:24;9.10;;;5.47;;
69894;SDS011;57172;52.034;5.090;2023-05-01T14:38:57;9.27;;;5.10;;
69894;SDS011;57172;52.034;5.090;2023-05-01T14:41:25;9.73;;;5.30;;
69894;SDS011;57172;52.034;5.090;2023-05-01T14:43:52;9.35;;;5.40;;
69894;SDS011;57172;52.034;5.090;2023-05-01T14:46:32;7.50;;;5.10;;
69894;SDS011;57172;52.034;5.090;2023-05-01T14:49:01;7.25;;;4.82;;
69894;SDS011;57172;52.034;5.090;2023-05-01T14:51:28;7.05;;;4.90;;
69894;SDS011;57172;52.034;5.090;2023-05-01T14:53:57;8.07;;;5.00;;
69894;SDS011;57172;52.034;5.090;2023-05-01T14:56:25;7.05;;;4.80;;
69894;SDS011;57172;52.034;5.090;2023-05-01T14:58:52;8.63;;;4.80;;
69894;SDS011;57172;52.034;5.090;2023-05-01T15:01:19;8.23;;;5.35;;
69894;SDS011;57172;52.034;5.090;2023-05-01T15:03:46;10.63;;;5.10;;
69894;SDS011;57172;52.034;5.090;2023-05-01T15:06:13;8.87;;;5.13;;
69894;SDS011;57172;52.034;5.090;2023-05-01T15:08:41;8.65;;;5.30;;
69894;SDS011;57172;52.034;5.090;2023-05-01T15:11:09;8.88;;;5.50;;
69894;SDS011;57172;52.034;5.090;2023-05-01T15:13:37;9.23;;;6.28;;
69894;SDS011;57172;52.034;5.090;2023-05-01T15:16:04;7.75;;;5.00;;
69894;SDS011;57172;52.034;5.090;2023-05-01T15:18:33;7.93;;;4.87;;
69894;SDS011;57172;52.034;5.090;2023-05-01T15:21:01;7.07;;;5.32;;
69894;SDS011;57172;52.034;5.090;2023-05-01T15:23:29;7.88;;;5.25;;
69894;SDS011;57172;52.034;5.090;2023-05-01T15:25:57;8.13;;;5.10;;
69894;SDS011;57172;52.034;5.090;2023-05-01T15:28:24;7.57;;;4.90;;
69894;SDS011;57172;52.034;5.090;2023-05-01T15:30:52;6.97;;;5.30;;
69894;SDS011;57172;52.034;5.090;2023-05-01T15:33:18;12.18;;;5.50;;
69894;SDS011;57172;52.034;5.090;2023-05-01T15:35:46;7.95;;;5.40;;
69894;SDS011;57172;52.034;5.090;2023-05-01T15:38:14;8.55;;;5.18;;
69894;SDS011;57172;52.034;5.090;2023-05-01T15:40:41;7.63;;;5.97;;
69894;SDS011;57172;52.034;5.090;2023-05-01T15:43:08;7.53;;;5.70;;
69894;SDS011;57172;52.034;5.090;2023-05-01T15:45:35;8.60;;;5.80;;
69894;SDS011;57172;52.034;5.090;2023-05-01T15:48:08;9.38;;;5.72;;
69894;SDS011;57172;52.034;5.090;2023-05-01T15:50:37;8.15;;;6.57;;
69894;SDS011;57172;52.034;5.090;2023-05-01T15:53:04;8.77;;;6.63;;
69894;SDS011;57172;52.034;5.090;2023-05-01T15:55:30;8.80;;;6.63;;
69894;SDS011;57172;52.034;5.090;2023-05-01T15:57:57;11.57;;;6.60;;
69894;SDS011;57172;52.034;5.090;2023-05-01T16:00:24;8.10;;;6.15;;
69894;SDS011;57172;52.034;5.090;2023-05-01T16:02:51;8.93;;;5.78;;
69894;SDS011;57172;52.034;5.090;2023-05-01T16:05:18;8.90;;;5.65;;